Time,TemperatureF,DewpointF,PressureIn,WindDirection,WindDirectionDegrees,WindSpeedMPH,WindSpeedGustMPH,Humidity,HourlyPrecipIn,Conditions,Clouds,dailyrainin,SoftwareType,DateUTC
2013-04-19 00:00:00,17.9,10.8,30.15,NW,315,0.0,0.0,67,0.00,,,0.02,open2300 v1.10,2013-04-19 06:00:00,
2013-04-19 00:05:00,17.9,10.8,30.15,NW,315,0.0,0.0,67,0.00,,,0.02,open2300 v1.10,2013-04-19 06:05:00,
2013-04-19 00:10:00,17.9,10.8,30.15,NW,315,0.0,0.0,67,0.00,,,0.02,open2300 v1.10,2013-04-19 06:10:00,
2013-04-19 00:15:00,17.9,10.5,30.15,NW,315,0.0,0.0,66,0.00,,,0.02,open2300 v1.10,2013-04-19 06:15:00,
2013-04-19 00:20:00,17.9,10.5,30.15,NW,315,0.0,0.0,66,0.00,,,0.02,open2300 v1.10,2013-04-19 06:20:00,
2013-04-19 00:25:00,17.9,10.5,30.15,NW,315,0.0,0.0,66,0.00,,,0.02,open2300 v1.10,2013-04-19 06:25:00,
2013-04-19 00:30:00,17.9,10.5,30.15,NW,315,0.0,0.0,66,0.00,,,0.02,open2300 v1.10,2013-04-19 06:30:00,
2013-04-19 00:35:00,17.9,10.5,30.15,NW,315,0.0,0.0,66,0.00,,,0.02,open2300 v1.10,2013-04-19 06:35:00,
2013-04-19 00:40:00,17.9,10.5,30.15,NW,315,0.0,0.0,66,0.00,,,0.02,open2300 v1.10,2013-04-19 06:40:00,
2013-04-19 00:45:00,17.9,10.5,30.15,NW,315,0.0,0.0,66,0.00,,,0.02,open2300 v1.10,2013-04-19 06:45:00,
2013-04-19 00:50:00,17.9,10.1,30.15,NW,315,0.0,0.0,65,0.00,,,0.02,open2300 v1.10,2013-04-19 06:50:00,
2013-04-19 00:55:00,17.7,9.9,30.15,NW,315,0.0,0.0,65,0.00,,,0.02,open2300 v1.10,2013-04-19 06:55:00,
2013-04-19 01:00:00,17.7,9.9,30.15,NW,315,0.0,0.0,65,0.00,,,0.02,open2300 v1.10,2013-04-19 07:00:00,
2013-04-19 01:02:00,17.7,9.9,30.15,NW,315,0.0,0.0,65,0.00,,,0.02,open2300 v1.10,2013-04-19 07:02:00,
2013-04-19 01:05:00,17.7,9.9,30.15,NW,315,0.0,0.0,65,0.00,,,0.02,open2300 v1.10,2013-04-19 07:05:00,
2013-04-19 01:10:00,17.4,9.6,30.15,NW,315,0.0,0.0,65,0.00,,,0.02,open2300 v1.10,2013-04-19 07:10:00,
2013-04-19 01:15:00,17.4,9.6,30.15,NW,315,0.0,0.0,65,0.00,,,0.02,open2300 v1.10,2013-04-19 07:15:00,
2013-04-19 01:20:00,17.4,9.6,30.15,NW,315,0.0,0.0,65,0.00,,,0.02,open2300 v1.10,2013-04-19 07:20:00,
2013-04-19 01:25:00,17.2,9.4,30.15,NW,315,0.0,0.0,65,0.00,,,0.02,open2300 v1.10,2013-04-19 07:25:00,
2013-04-19 01:30:00,17.0,9.2,30.14,NW,315,0.0,0.0,65,0.00,,,0.02,open2300 v1.10,2013-04-19 07:30:00,
2013-04-19 01:35:00,17.0,9.2,30.14,NW,315,0.0,0.0,65,0.00,,,0.02,open2300 v1.10,2013-04-19 07:35:00,
2013-04-19 01:40:00,17.0,9.6,30.14,NW,315,0.0,0.0,66,0.00,,,0.02,open2300 v1.10,2013-04-19 07:40:00,
2013-04-19 01:45:00,17.0,9.6,30.14,NW,315,0.0,0.0,66,0.00,,,0.02,open2300 v1.10,2013-04-19 07:45:00,
2013-04-19 01:50:00,17.0,9.6,30.14,NW,315,0.0,0.0,66,0.00,,,0.02,open2300 v1.10,2013-04-19 07:50:00,
2013-04-19 01:59:00,17.0,9.6,30.14,NW,315,0.0,0.0,66,0.00,,,0.02,open2300 v1.10,2013-04-19 07:59:00,
2013-04-19 02:00:00,17.0,9.6,30.14,NW,315,0.0,0.0,66,0.00,,,0.02,open2300 v1.10,2013-04-19 08:00:00,
2013-04-19 02:05:00,17.0,9.6,30.14,NW,315,0.0,0.0,66,0.00,,,0.02,open2300 v1.10,2013-04-19 08:05:00,
2013-04-19 02:10:00,17.0,9.6,30.14,NW,315,0.0,0.0,66,0.00,,,0.02,open2300 v1.10,2013-04-19 08:10:00,
2013-04-19 02:15:00,17.0,9.6,30.14,NW,315,0.0,0.0,66,0.00,,,0.02,open2300 v1.10,2013-04-19 08:15:00,
2013-04-19 02:20:00,17.0,9.6,30.14,NW,315,0.0,0.0,66,0.00,,,0.02,open2300 v1.10,2013-04-19 08:20:00,
2013-04-19 02:25:00,17.0,9.2,30.13,NW,315,0.0,0.0,65,0.00,,,0.02,open2300 v1.10,2013-04-19 08:25:00,
2013-04-19 02:30:00,17.0,9.2,30.13,NW,315,0.0,0.0,65,0.00,,,0.02,open2300 v1.10,2013-04-19 08:30:00,
2013-04-19 02:35:00,17.0,9.2,30.13,NW,315,0.0,0.0,65,0.00,,,0.02,open2300 v1.10,2013-04-19 08:35:00,
2013-04-19 02:40:00,17.2,9.4,30.13,NW,315,0.0,0.0,65,0.00,,,0.02,open2300 v1.10,2013-04-19 08:40:00,
2013-04-19 02:45:00,17.4,9.6,30.13,NW,315,0.0,0.0,65,0.00,,,0.02,open2300 v1.10,2013-04-19 08:45:00,
2013-04-19 02:50:00,17.4,9.2,30.13,NW,315,0.0,0.0,64,0.00,,,0.02,open2300 v1.10,2013-04-19 08:50:00,
2013-04-19 02:55:00,17.6,9.8,30.13,NW,315,0.0,0.0,65,0.00,,,0.02,open2300 v1.10,2013-04-19 08:55:00,
2013-04-19 03:00:00,17.6,9.4,30.13,NW,315,0.0,0.0,64,0.00,,,0.02,open2300 v1.10,2013-04-19 09:00:00,
2013-04-19 03:05:00,17.7,9.6,30.13,NW,315,0.0,0.0,64,0.00,,,0.02,open2300 v1.10,2013-04-19 09:05:00,
2013-04-19 03:10:00,17.7,9.6,30.13,NW,315,0.0,0.0,64,0.00,,,0.02,open2300 v1.10,2013-04-19 09:10:00,
2013-04-19 03:15:00,17.7,9.6,30.13,NW,315,0.0,0.0,64,0.00,,,0.02,open2300 v1.10,2013-04-19 09:15:00,
2013-04-19 03:20:00,17.7,9.6,30.13,NW,315,0.0,0.0,64,0.00,,,0.02,open2300 v1.10,2013-04-19 09:20:00,
2013-04-19 03:25:00,17.9,9.8,30.13,NW,315,0.0,0.0,64,0.00,,,0.02,open2300 v1.10,2013-04-19 09:25:00,
2013-04-19 03:30:00,17.9,10.1,30.13,NW,315,0.0,0.0,65,0.00,,,0.02,open2300 v1.10,2013-04-19 09:30:00,
2013-04-19 03:35:00,17.7,9.9,30.13,NW,315,0.0,0.0,65,0.00,,,0.02,open2300 v1.10,2013-04-19 09:35:00,
2013-04-19 03:40:00,17.7,9.9,30.13,NW,315,0.0,0.0,65,0.00,,,0.02,open2300 v1.10,2013-04-19 09:40:00,
2013-04-19 03:45:00,17.7,9.9,30.13,NW,315,0.0,0.0,65,0.00,,,0.02,open2300 v1.10,2013-04-19 09:45:00,
2013-04-19 03:50:00,17.7,9.9,30.13,NW,315,0.0,0.0,65,0.00,,,0.02,open2300 v1.10,2013-04-19 09:50:00,
2013-04-19 03:55:00,17.7,9.9,30.13,NW,315,0.0,0.0,65,0.00,,,0.02,open2300 v1.10,2013-04-19 09:55:00,
2013-04-19 04:00:00,17.7,9.9,30.13,NW,315,0.0,0.0,65,0.00,,,0.02,open2300 v1.10,2013-04-19 10:00:00,
2013-04-19 04:05:00,17.7,9.9,30.14,NW,315,0.0,0.0,65,0.00,,,0.02,open2300 v1.10,2013-04-19 10:05:00,
2013-04-19 04:10:00,17.7,9.9,30.13,NW,315,0.0,0.0,65,0.00,,,0.02,open2300 v1.10,2013-04-19 10:10:00,
2013-04-19 04:15:00,17.7,9.9,30.13,NW,315,0.0,0.0,65,0.00,,,0.02,open2300 v1.10,2013-04-19 10:15:00,
2013-04-19 04:20:00,17.6,9.8,30.14,NW,315,0.0,0.0,65,0.00,,,0.02,open2300 v1.10,2013-04-19 10:20:00,
2013-04-19 04:25:00,17.7,9.9,30.13,NW,315,0.0,0.0,65,0.00,,,0.02,open2300 v1.10,2013-04-19 10:25:00,
2013-04-19 04:30:00,17.7,9.9,30.13,NW,315,0.0,0.0,65,0.00,,,0.02,open2300 v1.10,2013-04-19 10:30:00,
2013-04-19 04:35:00,17.7,9.9,30.13,NW,315,0.0,0.0,65,0.00,,,0.02,open2300 v1.10,2013-04-19 10:35:00,
2013-04-19 04:40:00,17.9,10.1,30.13,NW,315,0.0,0.0,65,0.00,,,0.02,open2300 v1.10,2013-04-19 10:40:00,
2013-04-19 04:45:00,18.1,10.3,30.13,NW,315,0.0,0.0,65,0.00,,,0.02,open2300 v1.10,2013-04-19 10:45:00,
2013-04-19 04:50:00,18.3,10.5,30.13,NW,315,0.0,0.0,65,0.00,,,0.02,open2300 v1.10,2013-04-19 10:50:00,
2013-04-19 04:55:00,18.3,10.5,30.13,NW,315,0.0,0.0,65,0.00,,,0.02,open2300 v1.10,2013-04-19 10:55:00,
2013-04-19 05:00:00,18.3,10.5,30.14,NW,315,0.0,0.0,65,0.00,,,0.02,open2300 v1.10,2013-04-19 11:00:00,
2013-04-19 05:05:00,18.1,10.3,30.13,NW,315,0.0,0.0,65,0.00,,,0.02,open2300 v1.10,2013-04-19 11:05:00,
2013-04-19 05:10:00,18.1,10.3,30.14,NW,315,0.0,0.0,65,0.00,,,0.02,open2300 v1.10,2013-04-19 11:10:00,
2013-04-19 05:15:00,17.9,10.1,30.13,NW,315,0.0,0.0,65,0.00,,,0.02,open2300 v1.10,2013-04-19 11:15:00,
2013-04-19 05:20:00,17.9,10.1,30.14,NW,315,0.0,0.0,65,0.00,,,0.02,open2300 v1.10,2013-04-19 11:20:00,
2013-04-19 05:25:00,17.9,10.1,30.14,NW,315,0.0,0.0,65,0.00,,,0.02,open2300 v1.10,2013-04-19 11:25:00,
2013-04-19 05:30:00,17.7,9.9,30.14,NW,315,0.0,0.0,65,0.00,,,0.02,open2300 v1.10,2013-04-19 11:30:00,
2013-04-19 05:35:00,17.7,9.9,30.14,NW,315,0.0,0.0,65,0.00,,,0.02,open2300 v1.10,2013-04-19 11:35:00,
2013-04-19 05:40:00,17.7,9.9,30.14,NW,315,0.0,0.0,65,0.00,,,0.02,open2300 v1.10,2013-04-19 11:40:00,
2013-04-19 05:45:00,17.7,10.3,30.14,NW,315,0.0,0.0,66,0.00,,,0.02,open2300 v1.10,2013-04-19 11:45:00,
2013-04-19 05:50:00,17.7,10.3,30.14,NW,315,0.0,0.0,66,0.00,,,0.02,open2300 v1.10,2013-04-19 11:50:00,
2013-04-19 05:59:00,17.7,10.3,30.14,NW,315,0.0,0.0,66,0.00,,,0.02,open2300 v1.10,2013-04-19 11:59:00,
2013-04-19 06:00:00,17.7,10.3,30.14,NW,315,0.0,0.0,66,0.00,,,0.02,open2300 v1.10,2013-04-19 12:00:00,
2013-04-19 06:05:00,17.7,10.3,30.14,NW,315,0.0,0.0,66,0.00,,,0.02,open2300 v1.10,2013-04-19 12:05:00,
2013-04-19 06:10:00,17.9,10.5,30.14,NW,315,0.0,0.0,66,0.00,,,0.02,open2300 v1.10,2013-04-19 12:10:00,
2013-04-19 06:15:00,17.9,10.5,30.14,NW,315,0.0,0.0,66,0.00,,,0.02,open2300 v1.10,2013-04-19 12:15:00,
2013-04-19 06:20:00,18.1,10.6,30.14,NW,315,0.0,0.0,66,0.00,,,0.02,open2300 v1.10,2013-04-19 12:20:00,
2013-04-19 06:25:00,18.3,10.8,30.14,NW,315,0.0,0.0,66,0.00,,,0.02,open2300 v1.10,2013-04-19 12:25:00,
2013-04-19 06:30:00,18.3,10.5,30.14,NW,315,0.0,0.0,65,0.00,,,0.02,open2300 v1.10,2013-04-19 12:30:00,
2013-04-19 06:35:00,18.3,10.5,30.14,WNW,292,0.0,0.0,65,0.00,,,0.02,open2300 v1.10,2013-04-19 12:35:00,
2013-04-19 06:40:00,18.8,11.0,30.14,WNW,292,0.0,0.0,65,0.00,,,0.02,open2300 v1.10,2013-04-19 12:40:00,
2013-04-19 06:45:00,19.2,11.0,30.14,WNW,292,0.0,0.0,64,0.00,,,0.02,open2300 v1.10,2013-04-19 12:45:00,
2013-04-19 06:55:00,19.7,11.5,30.15,WNW,292,0.0,0.0,64,0.00,,,0.02,open2300 v1.10,2013-04-19 12:55:00,
2013-04-19 07:00:00,19.9,11.7,30.15,WNW,292,0.0,0.0,64,0.00,,,0.02,open2300 v1.10,2013-04-19 13:00:00,
2013-04-19 07:05:00,20.3,11.7,30.15,WNW,292,0.0,0.0,63,0.00,,,0.02,open2300 v1.10,2013-04-19 13:05:00,
2013-04-19 07:10:00,20.6,12.0,30.15,NW,315,0.0,0.0,63,0.00,,,0.02,open2300 v1.10,2013-04-19 13:10:00,
2013-04-19 07:15:00,21.0,12.4,30.15,NW,315,0.0,0.0,63,0.00,,,0.02,open2300 v1.10,2013-04-19 13:15:00,
2013-04-19 07:20:00,21.3,12.7,30.15,WNW,292,0.0,0.0,63,0.00,,,0.02,open2300 v1.10,2013-04-19 13:20:00,
2013-04-19 07:25:00,21.9,13.2,30.15,WNW,292,0.0,0.0,63,0.00,,,0.02,open2300 v1.10,2013-04-19 13:25:00,
2013-04-19 07:30:00,22.2,13.2,30.15,WNW,292,0.0,0.0,62,0.00,,,0.02,open2300 v1.10,2013-04-19 13:30:00,
2013-04-19 07:35:00,22.4,13.8,30.15,West,270,0.0,0.0,63,0.00,,,0.02,open2300 v1.10,2013-04-19 13:35:00,
2013-04-19 07:40:00,22.8,14.1,30.15,WSW,247,0.0,0.0,63,0.00,,,0.02,open2300 v1.10,2013-04-19 13:40:00,
2013-04-19 07:45:00,23.3,14.2,30.15,WSW,247,0.0,0.0,62,0.00,,,0.02,open2300 v1.10,2013-04-19 13:45:00,
2013-04-19 07:50:00,23.5,14.4,30.15,WSW,247,0.0,0.0,62,0.00,,,0.02,open2300 v1.10,2013-04-19 13:50:00,
2013-04-19 07:55:00,23.5,14.4,30.15,WSW,247,0.0,0.0,62,0.00,,,0.02,open2300 v1.10,2013-04-19 13:55:00,
2013-04-19 08:00:00,24.2,15.1,30.15,WSW,247,0.0,0.0,62,0.00,,,0.02,open2300 v1.10,2013-04-19 14:00:00,
2013-04-19 08:05:00,24.2,15.1,30.15,WSW,247,0.0,0.0,62,0.00,,,0.02,open2300 v1.10,2013-04-19 14:05:00,
2013-04-19 08:10:00,24.9,15.4,30.15,WSW,247,0.0,0.0,61,0.00,,,0.02,open2300 v1.10,2013-04-19 14:10:00,
2013-04-19 08:15:00,25.3,15.8,30.15,South,180,0.0,0.0,61,0.00,,,0.02,open2300 v1.10,2013-04-19 14:15:00,
2013-04-19 08:20:00,25.5,15.6,30.15,SW,225,0.0,0.0,60,0.00,,,0.02,open2300 v1.10,2013-04-19 14:20:00,
2013-04-19 08:25:00,26.0,16.2,30.15,SW,225,0.0,0.0,60,0.00,,,0.02,open2300 v1.10,2013-04-19 14:25:00,
2013-04-19 08:30:00,26.6,16.2,30.15,WSW,247,0.0,0.0,59,0.00,,,0.02,open2300 v1.10,2013-04-19 14:30:00,
2013-04-19 08:35:00,26.7,16.4,30.15,West,270,0.0,0.0,59,0.00,,,0.02,open2300 v1.10,2013-04-19 14:35:00,
2013-04-19 08:40:00,27.3,16.9,30.15,NW,315,0.0,0.0,59,0.00,,,0.02,open2300 v1.10,2013-04-19 14:40:00,
2013-04-19 08:45:00,27.8,17.0,30.15,NW,315,0.0,0.0,58,0.00,,,0.02,open2300 v1.10,2013-04-19 14:45:00,
2013-04-19 08:50:00,28.4,16.6,30.15,South,180,0.0,0.0,56,0.00,,,0.02,open2300 v1.10,2013-04-19 14:50:00,
2013-04-19 08:59:00,28.4,16.6,30.15,South,180,0.0,0.0,56,0.00,,,0.02,open2300 v1.10,2013-04-19 14:59:00,
2013-04-19 09:00:00,29.1,16.9,30.15,WSW,247,0.0,0.0,55,0.00,,,0.02,open2300 v1.10,2013-04-19 15:00:00,
2013-04-19 09:05:00,29.6,17.3,30.15,West,270,0.0,0.0,55,0.00,,,0.02,open2300 v1.10,2013-04-19 15:05:00,
2013-04-19 09:10:00,30.0,17.3,30.15,West,270,0.0,0.0,54,0.00,,,0.02,open2300 v1.10,2013-04-19 15:10:00,
2013-04-19 09:15:00,30.3,17.2,30.15,South,180,0.0,0.0,53,0.00,,,0.02,open2300 v1.10,2013-04-19 15:15:00,
2013-04-19 09:20:00,30.9,17.7,30.14,SSE,157,0.0,0.0,53,0.00,,,0.02,open2300 v1.10,2013-04-19 15:20:00,
2013-04-19 09:25:00,31.2,18.0,30.14,SSW,202,0.0,0.0,53,0.00,,,0.02,open2300 v1.10,2013-04-19 15:25:00,
2013-04-19 09:30:00,31.4,17.8,30.14,WSW,247,0.0,0.0,52,0.00,,,0.02,open2300 v1.10,2013-04-19 15:30:00,
2013-04-19 09:35:00,32.0,17.2,30.14,South,180,0.0,0.0,50,0.00,,,0.02,open2300 v1.10,2013-04-19 15:35:00,
2013-04-19 09:40:00,32.1,17.6,30.14,SE,135,6.9,7.0,50,0.00,,,0.02,open2300 v1.10,2013-04-19 15:40:00,
2013-04-19 09:45:00,32.1,17.6,30.14,SE,135,6.9,7.0,50,0.00,,,0.02,open2300 v1.10,2013-04-19 15:45:00,
2013-04-19 09:55:00,33.0,18.0,30.14,SSW,202,2.9,3.0,49,0.00,,,0.02,open2300 v1.10,2013-04-19 15:55:00,
2013-04-19 10:00:00,33.2,18.2,30.14,SSE,157,0.0,3.0,49,0.00,,,0.02,open2300 v1.10,2013-04-19 16:00:00,
2013-04-19 10:05:00,33.8,18.7,30.14,North,0,0.0,0.0,49,0.00,,,0.02,open2300 v1.10,2013-04-19 16:05:00,
2013-04-19 10:10:00,33.9,19.4,30.14,SSE,157,0.0,0.0,50,0.00,,,0.02,open2300 v1.10,2013-04-19 16:10:00,
2013-04-19 10:15:00,34.1,18.5,30.14,South,180,0.0,3.0,48,0.00,,,0.02,open2300 v1.10,2013-04-19 16:15:00,
2013-04-19 10:20:00,34.3,18.6,30.14,SE,135,0.0,0.0,48,0.00,,,0.02,open2300 v1.10,2013-04-19 16:20:00,
2013-04-19 10:25:00,35.0,19.3,30.13,North,0,0.0,0.0,48,0.00,,,0.02,open2300 v1.10,2013-04-19 16:25:00,
2013-04-19 10:30:00,35.2,18.9,30.13,SSE,157,0.0,0.0,47,0.00,,,0.02,open2300 v1.10,2013-04-19 16:30:00,
2013-04-19 10:35:00,35.7,18.9,30.13,South,180,0.0,3.0,46,0.00,,,0.02,open2300 v1.10,2013-04-19 16:35:00,
2013-04-19 10:40:00,35.9,18.5,30.13,WSW,247,0.0,0.0,45,0.00,,,0.02,open2300 v1.10,2013-04-19 16:40:00,
2013-04-19 10:45:00,36.3,19.4,30.13,SSE,157,0.0,0.0,46,0.00,,,0.02,open2300 v1.10,2013-04-19 16:45:00,
2013-04-19 10:50:00,36.8,19.9,30.13,WNW,292,0.0,4.0,46,0.00,,,0.02,open2300 v1.10,2013-04-19 16:50:00,
2013-04-19 10:55:00,37.4,20.3,30.13,WNW,292,0.0,0.0,46,0.00,,,0.02,open2300 v1.10,2013-04-19 16:55:00,
2013-04-19 11:00:00,37.7,20.1,30.13,SSE,157,1.6,2.0,45,0.00,,,0.02,open2300 v1.10,2013-04-19 17:00:00,
2013-04-19 11:05:00,38.3,20.6,30.14,South,180,0.0,2.0,45,0.00,,,0.02,open2300 v1.10,2013-04-19 17:05:00,
2013-04-19 11:10:00,38.4,20.8,30.14,East,90,0.0,0.0,45,0.00,,,0.02,open2300 v1.10,2013-04-19 17:10:00,
2013-04-19 11:15:00,38.6,21.0,30.13,SSE,157,0.0,0.0,45,0.00,,,0.02,open2300 v1.10,2013-04-19 17:15:00,
2013-04-19 11:20:00,39.0,20.8,30.13,South,180,0.0,0.0,44,0.00,,,0.02,open2300 v1.10,2013-04-19 17:20:00,
2013-04-19 11:25:00,39.3,21.6,30.14,SSE,157,0.0,0.0,45,0.00,,,0.02,open2300 v1.10,2013-04-19 17:25:00,
2013-04-19 11:30:00,39.7,22.0,30.14,SE,135,0.0,0.0,45,0.00,,,0.02,open2300 v1.10,2013-04-19 17:30:00,
2013-04-19 11:35:00,39.9,21.1,30.14,NW,315,0.0,0.0,43,0.00,,,0.02,open2300 v1.10,2013-04-19 17:35:00,
2013-04-19 11:40:00,40.2,21.9,30.14,WSW,247,0.0,0.0,44,0.00,,,0.02,open2300 v1.10,2013-04-19 17:40:00,
2013-04-19 11:45:00,40.4,21.6,30.13,South,180,0.0,0.0,43,0.00,,,0.02,open2300 v1.10,2013-04-19 17:45:00,
2013-04-19 11:50:00,40.8,21.9,30.13,West,270,0.0,2.0,43,0.00,,,0.02,open2300 v1.10,2013-04-19 17:50:00,
2013-04-19 11:55:00,40.8,21.9,30.13,WNW,292,0.0,0.0,43,0.00,,,0.02,open2300 v1.10,2013-04-19 17:55:00,
2013-04-19 12:00:00,40.8,21.4,30.13,SSE,157,0.0,0.0,42,0.00,,,0.02,open2300 v1.10,2013-04-19 18:00:00,
2013-04-19 12:05:00,40.8,20.8,30.13,SE,135,0.0,0.0,41,0.00,,,0.02,open2300 v1.10,2013-04-19 18:05:00,
2013-04-19 12:10:00,40.8,20.8,30.13,SSW,202,0.0,0.0,41,0.00,,,0.02,open2300 v1.10,2013-04-19 18:10:00,
2013-04-19 12:15:00,40.8,21.4,30.12,South,180,0.0,0.0,42,0.00,,,0.02,open2300 v1.10,2013-04-19 18:15:00,
2013-04-19 12:20:00,40.8,20.3,30.13,SW,225,0.0,0.0,40,0.00,,,0.02,open2300 v1.10,2013-04-19 18:20:00,
2013-04-19 12:25:00,40.4,21.0,30.13,SW,225,0.0,0.0,42,0.00,,,0.02,open2300 v1.10,2013-04-19 18:25:00,
2013-04-19 12:30:00,40.4,20.5,30.13,WNW,292,0.0,0.0,41,0.00,,,0.02,open2300 v1.10,2013-04-19 18:30:00,
2013-04-19 12:35:00,40.8,20.3,30.12,South,180,0.0,0.0,40,0.00,,,0.02,open2300 v1.10,2013-04-19 18:35:00,
2013-04-19 12:40:00,40.8,20.8,30.12,South,180,0.0,0.0,41,0.00,,,0.02,open2300 v1.10,2013-04-19 18:40:00,
2013-04-19 12:45:00,41.0,21.5,30.13,South,180,0.0,0.0,42,0.00,,,0.02,open2300 v1.10,2013-04-19 18:45:00,
2013-04-19 12:50:00,41.1,21.7,30.12,NNW,337,0.0,0.0,42,0.00,,,0.02,open2300 v1.10,2013-04-19 18:50:00,
2013-04-19 12:55:00,41.3,20.8,30.12,SSW,202,0.0,0.0,40,0.00,,,0.02,open2300 v1.10,2013-04-19 18:55:00,
2013-04-19 13:00:00,41.5,20.9,30.12,SSW,202,0.0,0.0,40,0.00,,,0.02,open2300 v1.10,2013-04-19 19:00:00,
2013-04-19 13:05:00,41.7,20.4,30.12,North,0,0.0,6.0,39,0.00,,,0.02,open2300 v1.10,2013-04-19 19:05:00,
2013-04-19 13:10:00,41.9,20.6,30.12,NNW,337,0.0,0.0,39,0.00,,,0.02,open2300 v1.10,2013-04-19 19:10:00,
2013-04-19 13:15:00,42.2,20.9,30.12,West,270,0.0,0.0,39,0.00,,,0.02,open2300 v1.10,2013-04-19 19:15:00,
2013-04-19 13:20:00,42.9,21.6,30.11,SSE,157,0.0,0.0,39,0.00,,,0.02,open2300 v1.10,2013-04-19 19:20:00,
2013-04-19 13:25:00,43.5,22.0,30.11,NW,315,0.0,0.0,39,0.00,,,0.02,open2300 v1.10,2013-04-19 19:25:00,
2013-04-19 13:30:00,43.5,21.4,30.11,NNW,337,0.0,3.0,38,0.00,,,0.02,open2300 v1.10,2013-04-19 19:30:00,
2013-04-19 13:35:00,43.5,20.0,30.11,NNE,22,0.0,4.0,36,0.00,,,0.02,open2300 v1.10,2013-04-19 19:35:00,
2013-04-19 13:40:00,43.3,19.9,30.11,NNW,337,0.0,0.0,36,0.00,,,0.02,open2300 v1.10,2013-04-19 19:40:00,
2013-04-19 13:45:00,43.1,19.1,30.11,NW,315,3.6,4.0,35,0.00,,,0.02,open2300 v1.10,2013-04-19 19:45:00,
2013-04-19 13:50:00,43.1,20.4,30.11,NE,45,0.0,4.0,37,0.00,,,0.02,open2300 v1.10,2013-04-19 19:50:00,
2013-04-19 13:55:00,43.7,20.9,30.10,NNW,337,0.0,0.0,37,0.00,,,0.02,open2300 v1.10,2013-04-19 19:55:00,
2013-04-19 14:00:00,44.0,21.2,30.10,WNW,292,0.0,0.0,37,0.00,,,0.02,open2300 v1.10,2013-04-19 20:00:00,
2013-04-19 14:05:00,44.6,21.7,30.10,WNW,292,0.0,0.0,37,0.00,,,0.02,open2300 v1.10,2013-04-19 20:05:00,
2013-04-19 14:10:00,44.9,21.3,30.10,NE,45,0.0,0.0,36,0.00,,,0.02,open2300 v1.10,2013-04-19 20:10:00,
2013-04-19 14:15:00,44.9,20.7,30.09,SE,135,0.0,0.0,35,0.00,,,0.02,open2300 v1.10,2013-04-19 20:15:00,
2013-04-19 14:20:00,45.3,22.3,30.10,WNW,292,0.0,0.0,37,0.00,,,0.02,open2300 v1.10,2013-04-19 20:20:00,
2013-04-19 14:25:00,45.3,21.7,30.10,NNW,337,0.0,2.0,36,0.00,,,0.02,open2300 v1.10,2013-04-19 20:25:00,
2013-04-19 14:30:00,45.3,20.3,30.10,North,0,0.0,1.0,34,0.00,,,0.02,open2300 v1.10,2013-04-19 20:30:00,
2013-04-19 14:35:00,44.9,20.7,30.09,NNE,22,0.0,7.0,35,0.00,,,0.02,open2300 v1.10,2013-04-19 20:35:00,
2013-04-19 14:40:00,44.4,20.2,30.10,NNE,22,0.0,0.0,35,0.00,,,0.02,open2300 v1.10,2013-04-19 20:40:00,
2013-04-19 14:45:00,44.4,20.9,30.10,NNE,22,0.0,0.0,36,0.00,,,0.02,open2300 v1.10,2013-04-19 20:45:00,
2013-04-19 14:50:00,44.4,20.9,30.09,NNE,22,0.0,0.0,36,0.00,,,0.02,open2300 v1.10,2013-04-19 20:50:00,
2013-04-19 14:55:00,44.0,20.5,30.09,ESE,112,0.0,0.0,36,0.00,,,0.02,open2300 v1.10,2013-04-19 20:55:00,
2013-04-19 15:00:00,43.8,20.4,30.09,SE,135,0.0,0.0,36,0.00,,,0.02,open2300 v1.10,2013-04-19 21:00:00,
2013-04-19 15:05:00,43.8,21.0,30.09,SE,135,0.0,0.0,37,0.00,,,0.02,open2300 v1.10,2013-04-19 21:05:00,
2013-04-19 15:10:00,43.8,20.4,30.09,SE,135,0.0,0.0,36,0.00,,,0.02,open2300 v1.10,2013-04-19 21:10:00,
2013-04-19 15:15:00,43.8,21.0,30.09,ESE,112,0.0,0.0,37,0.00,,,0.02,open2300 v1.10,2013-04-19 21:15:00,
2013-04-19 15:20:00,44.0,21.9,30.09,ESE,112,0.0,0.0,38,0.00,,,0.02,open2300 v1.10,2013-04-19 21:20:00,
2013-04-19 15:25:00,43.8,21.0,30.09,ESE,112,0.0,0.0,37,0.00,,,0.02,open2300 v1.10,2013-04-19 21:25:00,
2013-04-19 15:30:00,43.8,21.0,30.09,ESE,112,0.0,0.0,37,0.00,,,0.02,open2300 v1.10,2013-04-19 21:30:00,
2013-04-19 15:35:00,43.8,21.0,30.09,ENE,67,0.0,0.0,37,0.00,,,0.02,open2300 v1.10,2013-04-19 21:35:00,
2013-04-19 15:40:00,43.5,20.0,30.09,ESE,112,0.0,0.0,36,0.00,,,0.02,open2300 v1.10,2013-04-19 21:40:00,
2013-04-19 15:45:00,43.5,20.0,30.08,ESE,112,0.0,0.0,36,0.00,,,0.02,open2300 v1.10,2013-04-19 21:45:00,
2013-04-19 15:50:00,43.5,20.7,30.08,East,90,5.1,5.1,37,0.00,,,0.02,open2300 v1.10,2013-04-19 21:50:00,
2013-04-19 15:55:00,43.5,21.4,30.08,East,90,0.0,5.0,38,0.00,,,0.02,open2300 v1.10,2013-04-19 21:55:00,
2013-04-19 16:00:00,43.5,20.0,30.08,ENE,67,0.0,4.0,36,0.00,,,0.02,open2300 v1.10,2013-04-19 22:00:00,
2013-04-19 16:05:00,43.5,20.7,30.08,ESE,112,0.0,4.0,37,0.00,,,0.02,open2300 v1.10,2013-04-19 22:05:00,
2013-04-19 16:10:00,43.5,20.7,30.08,ESE,112,0.0,0.0,37,0.00,,,0.02,open2300 v1.10,2013-04-19 22:10:00,
2013-04-19 16:15:00,43.7,20.2,30.08,ENE,67,0.0,0.0,36,0.00,,,0.02,open2300 v1.10,2013-04-19 22:15:00,
2013-04-19 16:20:00,43.8,19.7,30.08,ESE,112,0.0,0.0,35,0.00,,,0.02,open2300 v1.10,2013-04-19 22:20:00,
2013-04-19 16:25:00,43.8,19.7,30.08,ESE,112,0.0,0.0,35,0.00,,,0.02,open2300 v1.10,2013-04-19 22:25:00,
2013-04-19 16:30:00,43.8,20.4,30.08,ESE,112,0.0,0.0,36,0.00,,,0.02,open2300 v1.10,2013-04-19 22:30:00,
2013-04-19 16:35:00,43.8,20.4,30.07,ESE,112,0.0,1.0,36,0.00,,,0.02,open2300 v1.10,2013-04-19 22:35:00,
2013-04-19 16:40:00,43.8,19.7,30.07,East,90,0.0,0.0,35,0.00,,,0.02,open2300 v1.10,2013-04-19 22:40:00,
2013-04-19 16:45:00,43.5,20.0,30.07,East,90,0.0,0.0,36,0.00,,,0.02,open2300 v1.10,2013-04-19 22:45:00,
2013-04-19 16:50:00,43.7,20.9,30.07,SE,135,0.0,0.0,37,0.00,,,0.02,open2300 v1.10,2013-04-19 22:50:00,
2013-04-19 16:55:00,43.8,21.0,30.07,SSE,157,0.0,0.0,37,0.00,,,0.02,open2300 v1.10,2013-04-19 22:55:00,
2013-04-19 17:00:00,43.8,20.4,30.07,SSE,157,0.0,0.0,36,0.00,,,0.02,open2300 v1.10,2013-04-19 23:00:00,
2013-04-19 17:05:00,43.8,20.4,30.07,SSE,157,0.0,0.0,36,0.00,,,0.02,open2300 v1.10,2013-04-19 23:05:00,
2013-04-19 17:10:00,43.8,20.4,30.07,SSE,157,0.0,0.0,36,0.00,,,0.02,open2300 v1.10,2013-04-19 23:10:00,
2013-04-19 17:15:00,43.8,20.4,30.07,SSE,157,0.0,0.0,36,0.00,,,0.02,open2300 v1.10,2013-04-19 23:15:00,
2013-04-19 17:20:00,43.5,20.0,30.07,ESE,112,0.0,4.0,36,0.00,,,0.02,open2300 v1.10,2013-04-19 23:20:00,
2013-04-19 17:25:00,43.5,20.0,30.07,SE,135,0.0,0.0,36,0.00,,,0.02,open2300 v1.10,2013-04-19 23:25:00,
2013-04-19 17:30:00,43.5,20.7,30.07,SE,135,0.0,0.0,37,0.00,,,0.02,open2300 v1.10,2013-04-19 23:30:00,
2013-04-19 17:35:00,43.5,20.7,30.07,SE,135,0.0,0.0,37,0.00,,,0.02,open2300 v1.10,2013-04-19 23:35:00,
2013-04-19 17:40:00,43.5,21.4,30.07,SE,135,0.0,0.0,38,0.00,,,0.02,open2300 v1.10,2013-04-19 23:40:00,
2013-04-19 17:45:00,43.5,22.0,30.07,SE,135,0.0,0.0,39,0.00,,,0.02,open2300 v1.10,2013-04-19 23:45:00,
2013-04-19 17:50:00,43.7,21.5,30.07,SE,135,0.0,0.0,38,0.00,,,0.02,open2300 v1.10,2013-04-19 23:50:00,
2013-04-19 17:55:00,43.5,21.4,30.07,SSE,157,0.0,0.0,38,0.00,,,0.02,open2300 v1.10,2013-04-19 23:55:00,
2013-04-19 18:00:00,43.5,21.4,30.07,SSE,157,0.0,0.0,38,0.00,,,0.02,open2300 v1.10,2013-04-20 00:00:00,
2013-04-19 18:05:00,43.5,22.0,30.07,SSE,157,0.0,0.0,39,0.00,,,0.00,open2300 v1.10,2013-04-20 00:05:00,
2013-04-19 18:10:00,43.3,21.9,30.07,SSE,157,0.0,0.0,39,0.00,,,0.00,open2300 v1.10,2013-04-20 00:10:00,
2013-04-19 18:15:00,43.1,21.7,30.07,SSE,157,0.0,0.0,39,0.00,,,0.00,open2300 v1.10,2013-04-20 00:15:00,
2013-04-19 18:20:00,42.9,22.2,30.07,SSE,157,0.0,0.0,40,0.00,,,0.00,open2300 v1.10,2013-04-20 00:20:00,
2013-04-19 18:25:00,42.9,22.2,30.07,SSE,157,0.0,0.0,40,0.00,,,0.00,open2300 v1.10,2013-04-20 00:25:00,
2013-04-19 18:30:00,42.6,22.4,30.07,SSE,157,0.0,0.0,41,0.00,,,0.00,open2300 v1.10,2013-04-20 00:30:00,
2013-04-19 18:35:00,42.6,22.4,30.07,SSE,157,0.0,0.0,41,0.00,,,0.00,open2300 v1.10,2013-04-20 00:35:00,
2013-04-19 18:40:00,42.2,22.7,30.07,SSE,157,0.0,0.0,42,0.00,,,0.00,open2300 v1.10,2013-04-20 00:40:00,
2013-04-19 18:45:00,42.2,23.2,30.07,SSE,157,0.0,0.0,43,0.00,,,0.00,open2300 v1.10,2013-04-20 00:45:00,
2013-04-19 18:55:00,41.9,23.4,30.07,SSE,157,0.0,0.0,44,0.00,,,0.00,open2300 v1.10,2013-04-20 00:55:00,
2013-04-19 19:00:00,41.3,23.5,30.07,SSE,157,0.0,0.0,45,0.00,,,0.00,open2300 v1.10,2013-04-20 01:00:00,
2013-04-19 19:05:00,41.3,23.5,30.07,SSE,157,0.0,0.0,45,0.00,,,0.00,open2300 v1.10,2013-04-20 01:05:00,
2013-04-19 19:10:00,41.1,23.9,30.07,SSE,157,0.0,0.0,46,0.00,,,0.00,open2300 v1.10,2013-04-20 01:10:00,
2013-04-19 19:15:00,40.8,23.5,30.07,SSE,157,0.0,0.0,46,0.00,,,0.00,open2300 v1.10,2013-04-20 01:15:00,
2013-04-19 19:20:00,40.4,22.6,30.07,SSE,157,0.0,0.0,45,0.00,,,0.00,open2300 v1.10,2013-04-20 01:20:00,
2013-04-19 19:25:00,40.2,23.0,30.07,SSE,157,0.0,0.0,46,0.00,,,0.00,open2300 v1.10,2013-04-20 01:25:00,
2013-04-19 19:30:00,39.9,23.2,30.07,SSE,157,0.0,0.0,47,0.00,,,0.00,open2300 v1.10,2013-04-20 01:30:00,
2013-04-19 19:35:00,39.7,23.0,30.07,SSE,157,0.0,0.0,47,0.00,,,0.00,open2300 v1.10,2013-04-20 01:35:00,
2013-04-19 19:40:00,39.3,23.2,30.06,SSE,157,0.0,0.0,48,0.00,,,0.00,open2300 v1.10,2013-04-20 01:40:00,
2013-04-19 19:45:00,39.2,23.0,30.07,SSE,157,0.0,0.0,48,0.00,,,0.00,open2300 v1.10,2013-04-20 01:45:00,
2013-04-19 19:50:00,38.8,22.7,30.07,SSE,157,0.0,0.0,48,0.00,,,0.00,open2300 v1.10,2013-04-20 01:50:00,
2013-04-19 19:55:00,38.6,22.5,30.07,SSE,157,0.0,0.0,48,0.00,,,0.00,open2300 v1.10,2013-04-20 01:55:00,
2013-04-19 20:00:00,38.3,22.7,30.07,SSE,157,0.0,0.0,49,0.00,,,0.00,open2300 v1.10,2013-04-20 02:00:00,
2013-04-19 20:05:00,37.9,22.4,30.07,SSE,157,0.0,0.0,49,0.00,,,0.00,open2300 v1.10,2013-04-20 02:05:00,
2013-04-19 20:10:00,37.7,22.2,30.07,SSE,157,0.0,0.0,49,0.00,,,0.00,open2300 v1.10,2013-04-20 02:10:00,
2013-04-19 20:15:00,37.5,22.6,30.07,SSE,157,0.0,0.0,50,0.00,,,0.00,open2300 v1.10,2013-04-20 02:15:00,
2013-04-19 20:20:00,37.5,22.1,30.07,SSE,157,0.0,0.0,49,0.00,,,0.00,open2300 v1.10,2013-04-20 02:20:00,
2013-04-19 20:25:00,37.4,22.4,30.07,SSE,157,0.0,0.0,50,0.00,,,0.00,open2300 v1.10,2013-04-20 02:25:00,
2013-04-19 20:30:00,37.2,22.3,30.07,SSE,157,0.0,0.0,50,0.00,,,0.00,open2300 v1.10,2013-04-20 02:30:00,
2013-04-19 20:35:00,37.2,22.7,30.07,SSE,157,0.0,0.0,51,0.00,,,0.00,open2300 v1.10,2013-04-20 02:35:00,
2013-04-19 20:40:00,37.0,23.0,30.08,SSE,157,0.0,0.0,52,0.00,,,0.00,open2300 v1.10,2013-04-20 02:40:00,
2013-04-19 20:45:00,36.8,22.8,30.08,SSE,157,0.0,0.0,52,0.00,,,0.00,open2300 v1.10,2013-04-20 02:45:00,
2013-04-19 20:50:00,36.8,22.8,30.08,SSE,157,0.0,0.0,52,0.00,,,0.00,open2300 v1.10,2013-04-20 02:50:00,
2013-04-19 20:55:00,36.6,22.6,30.08,SSE,157,0.0,0.0,52,0.00,,,0.00,open2300 v1.10,2013-04-20 02:55:00,
2013-04-19 21:00:00,36.3,22.8,30.09,SSE,157,0.0,0.0,53,0.00,,,0.00,open2300 v1.10,2013-04-20 03:00:00,
2013-04-19 21:05:00,36.3,22.8,30.09,SSE,157,0.0,0.0,53,0.00,,,0.00,open2300 v1.10,2013-04-20 03:05:00,
2013-04-19 21:10:00,36.1,22.6,30.08,SSE,157,0.0,0.0,53,0.00,,,0.00,open2300 v1.10,2013-04-20 03:10:00,
2013-04-19 21:15:00,35.9,22.4,30.08,SSE,157,0.0,0.0,53,0.00,,,0.00,open2300 v1.10,2013-04-20 03:15:00,
2013-04-19 21:20:00,35.9,22.4,30.09,SSE,157,0.0,0.0,53,0.00,,,0.00,open2300 v1.10,2013-04-20 03:20:00,
2013-04-19 21:25:00,35.7,22.3,30.09,SSE,157,0.0,0.0,53,0.00,,,0.00,open2300 v1.10,2013-04-20 03:25:00,
2013-04-19 21:30:00,35.7,22.7,30.09,SSE,157,0.0,0.0,54,0.00,,,0.00,open2300 v1.10,2013-04-20 03:30:00,
2013-04-19 21:35:00,35.6,22.5,30.09,SSE,157,0.0,0.0,54,0.00,,,0.00,open2300 v1.10,2013-04-20 03:35:00,
2013-04-19 21:40:00,35.4,22.8,30.09,SSE,157,0.0,0.0,55,0.00,,,0.00,open2300 v1.10,2013-04-20 03:40:00,
2013-04-19 21:45:00,35.4,22.8,30.09,SSE,157,0.0,0.0,55,0.00,,,0.00,open2300 v1.10,2013-04-20 03:45:00,
2013-04-19 21:50:00,35.2,22.6,30.09,SSE,157,0.0,0.0,55,0.00,,,0.00,open2300 v1.10,2013-04-20 03:50:00,
2013-04-19 21:55:00,35.0,22.5,30.09,SSE,157,0.0,0.0,55,0.00,,,0.00,open2300 v1.10,2013-04-20 03:55:00,
2013-04-19 22:00:00,35.0,22.9,30.09,SSE,157,0.0,0.0,56,0.00,,,0.00,open2300 v1.10,2013-04-20 04:00:00,
2013-04-19 22:05:00,34.8,22.8,30.09,SSE,157,0.0,0.0,56,0.00,,,0.00,open2300 v1.10,2013-04-20 04:05:00,
2013-04-19 22:10:00,34.8,22.8,30.09,SSE,157,0.0,0.0,56,0.00,,,0.00,open2300 v1.10,2013-04-20 04:10:00,
2013-04-19 22:15:00,34.7,22.6,30.09,SSE,157,0.0,0.0,56,0.00,,,0.00,open2300 v1.10,2013-04-20 04:15:00,
2013-04-19 22:20:00,34.5,22.4,30.09,SSE,157,0.0,0.0,56,0.00,,,0.00,open2300 v1.10,2013-04-20 04:20:00,
2013-04-19 22:25:00,34.3,22.3,30.09,SSE,157,0.0,0.0,56,0.00,,,0.00,open2300 v1.10,2013-04-20 04:25:00,
2013-04-19 22:30:00,34.1,22.5,30.09,SSE,157,0.0,0.0,57,0.00,,,0.00,open2300 v1.10,2013-04-20 04:30:00,
2013-04-19 22:35:00,34.1,22.5,30.09,SSE,157,0.0,0.0,57,0.00,,,0.00,open2300 v1.10,2013-04-20 04:35:00,
2013-04-19 22:40:00,33.9,22.4,30.09,SSE,157,0.0,0.0,57,0.00,,,0.00,open2300 v1.10,2013-04-20 04:40:00,
2013-04-19 22:45:00,33.8,22.2,30.09,SSE,157,0.0,0.0,57,0.00,,,0.00,open2300 v1.10,2013-04-20 04:45:00,
2013-04-19 22:50:00,33.6,21.6,30.09,SSE,157,0.0,0.0,56,0.00,,,0.00,open2300 v1.10,2013-04-20 04:50:00,
2013-04-19 22:55:00,33.6,22.0,30.09,SSE,157,0.0,0.0,57,0.00,,,0.00,open2300 v1.10,2013-04-20 04:55:00,
2013-04-19 22:59:00,33.6,22.0,30.09,SSE,157,0.0,0.0,57,0.00,,,0.00,open2300 v1.10,2013-04-20 04:59:00,
2013-04-19 23:00:00,33.2,21.7,30.09,SSE,157,0.0,0.0,57,0.00,,,0.00,open2300 v1.10,2013-04-20 05:00:00,
2013-04-19 23:05:00,33.2,21.7,30.09,SSE,157,0.0,0.0,57,0.00,,,0.00,open2300 v1.10,2013-04-20 05:05:00,
2013-04-19 23:10:00,33.2,21.7,30.09,SSE,157,0.0,0.0,57,0.00,,,0.00,open2300 v1.10,2013-04-20 05:10:00,
2013-04-19 23:15:00,33.2,22.1,30.09,SSE,157,0.0,0.0,58,0.00,,,0.00,open2300 v1.10,2013-04-20 05:15:00,
2013-04-19 23:20:00,33.2,22.1,30.08,SSE,157,0.0,0.0,58,0.00,,,0.00,open2300 v1.10,2013-04-20 05:20:00,
2013-04-19 23:25:00,33.2,22.1,30.09,SSE,157,0.0,0.0,58,0.00,,,0.00,open2300 v1.10,2013-04-20 05:25:00,
2013-04-19 23:30:00,33.2,22.1,30.09,SSE,157,0.0,0.0,58,0.00,,,0.00,open2300 v1.10,2013-04-20 05:30:00,
2013-04-19 23:35:00,33.2,22.6,30.09,SSE,157,0.0,0.0,59,0.00,,,0.00,open2300 v1.10,2013-04-20 05:35:00,
2013-04-19 23:40:00,33.2,22.6,30.09,SSE,157,0.0,0.0,59,0.00,,,0.00,open2300 v1.10,2013-04-20 05:40:00,
2013-04-19 23:45:00,33.2,22.6,30.09,SSE,157,0.0,0.0,59,0.00,,,0.00,open2300 v1.10,2013-04-20 05:45:00,
2013-04-19 23:55:00,33.2,22.6,30.08,SSE,157,0.0,0.0,59,0.00,,,0.00,open2300 v1.10,2013-04-20 05:55:00,